Time,TemperatureF,DewpointF,PressureIn,WindDirection,WindDirectionDegrees,WindSpeedMPH,WindSpeedGustMPH,Humidity,HourlyPrecipIn,Conditions,Clouds,dailyrainin,SolarRadiationWatts/m^2,SoftwareType,DateUTC
2013-02-15 00:11:00,50.0,17.0,-100.00,NNW,345,18.0,27.0,27,0.00,,,0.00,0.000000,,2013-02-15 07:11:00,
2013-02-15 00:21:00,50.0,17.0,-100.00,NNW,345,18.0,27.0,27,0.00,,,0.00,0.000000,,2013-02-15 07:21:00,
2013-02-15 00:31:00,50.0,17.0,-100.00,NNW,345,18.0,27.0,27,0.00,,,0.00,0.000000,,2013-02-15 07:31:00,
2013-02-15 00:41:00,50.0,17.0,-100.00,NNW,345,18.0,27.0,27,0.00,,,0.00,0.000000,,2013-02-15 07:41:00,
2013-02-15 00:52:00,48.0,16.0,-100.00,NNW,338,15.0,27.0,28,0.00,,,0.00,0.000000,,2013-02-15 07:52:00,
2013-02-15 01:11:00,48.0,16.0,-100.00,NNW,338,15.0,27.0,28,0.00,,,0.00,0.000000,,2013-02-15 08:11:00,
2013-02-15 01:21:00,48.0,16.0,-100.00,NNW,338,15.0,27.0,28,0.00,,,0.00,0.000000,,2013-02-15 08:21:00,
2013-02-15 01:31:00,48.0,16.0,-100.00,NNW,338,15.0,27.0,28,0.00,,,0.00,0.000000,,2013-02-15 08:31:00,
2013-02-15 01:41:00,48.0,16.0,-100.00,NNW,338,15.0,27.0,28,0.00,,,0.00,0.000000,,2013-02-15 08:41:00,
2013-02-15 02:12:00,50.0,16.0,-100.00,NNW,348,14.0,24.0,25,0.00,,,0.00,0.000000,,2013-02-15 09:12:00,
2013-02-15 02:21:00,50.0,16.0,-100.00,NNW,348,14.0,24.0,25,0.00,,,0.00,0.000000,,2013-02-15 09:21:00,
2013-02-15 02:31:00,50.0,16.0,-100.00,NNW,348,14.0,24.0,25,0.00,,,0.00,0.000000,,2013-02-15 09:31:00,
2013-02-15 02:41:00,50.0,16.0,-100.00,NNW,348,14.0,24.0,25,0.00,,,0.00,0.000000,,2013-02-15 09:41:00,
2013-02-15 02:51:00,50.0,16.0,-100.00,NNW,348,14.0,24.0,25,0.00,,,0.00,0.000000,,2013-02-15 09:51:00,
2013-02-15 03:21:00,49.0,15.0,-100.00,NE,45,10.0,23.0,25,0.00,,,0.00,0.000000,,2013-02-15 10:21:00,
2013-02-15 03:31:00,49.0,15.0,-100.00,NE,45,10.0,23.0,25,0.00,,,0.00,0.000000,,2013-02-15 10:31:00,
2013-02-15 03:41:00,49.0,15.0,-100.00,NE,45,10.0,23.0,25,0.00,,,0.00,0.000000,,2013-02-15 10:41:00,
2013-02-15 03:51:00,49.0,15.0,-100.00,NE,45,10.0,23.0,25,0.00,,,0.00,0.000000,,2013-02-15 10:51:00,
2013-02-15 03:52:00,50.0,15.0,-100.00,North,356,9.0,19.0,24,0.00,,,0.00,0.000000,,2013-02-15 10:52:00,
2013-02-15 04:11:00,50.0,15.0,-100.00,North,356,9.0,19.0,24,0.00,,,0.00,0.000000,,2013-02-15 11:11:00,
2013-02-15 04:22:00,50.0,15.0,-100.00,North,356,9.0,19.0,24,0.00,,,0.00,0.000000,,2013-02-15 11:22:00,
2013-02-15 04:31:00,50.0,15.0,-100.00,North,356,9.0,19.0,24,0.00,,,0.00,0.000000,,2013-02-15 11:31:00,
2013-02-15 04:42:00,50.0,15.0,-100.00,North,356,9.0,19.0,24,0.00,,,0.00,0.000000,,2013-02-15 11:42:00,
2013-02-15 05:21:00,48.0,14.0,-100.00,NNE,15,12.0,20.0,25,0.00,,,0.00,0.000000,,2013-02-15 12:21:00,
2013-02-15 06:11:00,49.0,9.0,-100.00,SW,234,13.0,22.0,19,0.00,,,0.00,0.000000,,2013-02-15 13:11:00,
2013-02-15 06:21:00,49.0,9.0,-100.00,SW,234,13.0,22.0,19,0.00,,,0.00,0.000000,,2013-02-15 13:21:00,
2013-02-15 07:21:00,49.0,7.0,-100.00,North,3,12.0,24.0,18,0.00,,,-99.99,0.000000,,2013-02-15 14:21:00,
2013-02-15 08:21:00,48.0,5.0,-100.00,North,353,11.0,19.0,17,0.00,,,0.00,14.000000,,2013-02-15 15:21:00,
2013-02-15 09:22:00,53.0,5.0,-100.00,NNW,348,10.0,19.0,14,0.00,,,0.00,220.000000,,2013-02-15 16:22:00,
2013-02-15 10:11:00,55.0,8.0,-100.00,NNE,17,12.0,21.0,15,-99.99,,,0.00,481.000000,,2013-02-15 17:11:00,
2013-02-15 10:21:00,55.0,8.0,-100.00,NNE,17,12.0,21.0,15,-99.99,,,0.00,481.000000,,2013-02-15 17:21:00,
2013-02-15 11:11:00,60.0,11.0,-100.00,NNE,23,9.0,24.0,14,-99.99,,,0.00,708.000000,,2013-02-15 18:11:00,
2013-02-15 11:21:00,60.0,11.0,-100.00,NNE,23,9.0,24.0,14,-99.99,,,0.00,708.000000,,2013-02-15 18:21:00,
2013-02-15 12:21:00,61.0,11.0,-100.00,NNE,33,10.0,17.0,14,-99.99,,,0.00,871.000000,,2013-02-15 19:21:00,
2013-02-15 13:21:00,63.0,15.0,-100.00,North,5,9.0,19.0,15,-99.99,,,0.00,956.000000,,2013-02-15 20:21:00,
2013-02-15 14:11:00,63.0,13.0,-100.00,North,11,7.0,15.0,14,0.00,,,0.00,957.000000,,2013-02-15 21:11:00,
2013-02-15 14:21:00,63.0,13.0,-100.00,North,11,7.0,15.0,14,0.00,,,0.00,957.000000,,2013-02-15 21:21:00,
2013-02-15 14:31:00,63.0,13.0,-100.00,North,11,7.0,15.0,14,0.00,,,0.00,957.000000,,2013-02-15 21:31:00,
2013-02-15 14:42:00,63.0,13.0,-100.00,North,11,7.0,15.0,14,0.00,,,0.00,957.000000,,2013-02-15 21:42:00,
2013-02-15 14:51:00,63.0,13.0,-100.00,North,11,7.0,15.0,14,0.00,,,0.00,957.000000,,2013-02-15 21:51:00,
2013-02-15 15:21:00,61.0,13.0,-100.00,NNW,330,13.0,20.0,15,0.00,,,0.00,874.000000,,2013-02-15 22:21:00,
2013-02-15 15:31:00,61.0,13.0,-100.00,NNW,330,13.0,20.0,15,0.00,,,0.00,874.000000,,2013-02-15 22:31:00,
2013-02-15 15:41:00,61.0,13.0,-100.00,NNW,330,13.0,20.0,15,0.00,,,0.00,874.000000,,2013-02-15 22:41:00,
2013-02-15 15:51:00,61.0,13.0,-100.00,NNW,330,13.0,20.0,15,0.00,,,0.00,874.000000,,2013-02-15 22:51:00,
2013-02-15 15:52:00,61.0,13.0,-100.00,NNW,333,14.0,25.0,15,0.00,,,0.00,710.000000,,2013-02-15 22:52:00,
2013-02-15 16:21:00,61.0,13.0,-100.00,NNW,333,14.0,25.0,15,0.00,,,0.00,710.000000,,2013-02-15 23:21:00,
2013-02-15 16:31:00,61.0,13.0,-100.00,NNW,333,14.0,25.0,15,0.00,,,0.00,710.000000,,2013-02-15 23:31:00,
2013-02-15 16:41:00,61.0,13.0,-100.00,NNW,333,14.0,25.0,15,0.00,,,0.00,710.000000,,2013-02-15 23:41:00,
2013-02-15 17:11:00,60.0,11.0,-100.00,NNW,330,14.0,25.0,14,0.00,,,0.00,482.000000,,2013-02-16 00:11:00,
2013-02-15 17:21:00,60.0,11.0,-100.00,NNW,330,14.0,25.0,14,0.00,,,0.00,482.000000,,2013-02-16 00:21:00,
2013-02-15 17:32:00,60.0,11.0,-100.00,NNW,330,14.0,25.0,14,0.00,,,0.00,482.000000,,2013-02-16 00:32:00,
2013-02-15 17:41:00,60.0,11.0,-100.00,NNW,330,14.0,25.0,14,0.00,,,0.00,482.000000,,2013-02-16 00:41:00,
2013-02-15 17:51:00,60.0,11.0,-100.00,NNW,330,14.0,25.0,14,0.00,,,0.00,482.000000,,2013-02-16 00:51:00,
2013-02-15 18:21:00,59.0,11.0,-100.00,NNW,343,12.0,20.0,15,0.00,,,-99.99,158.000000,,2013-02-16 01:21:00,
2013-02-15 18:31:00,59.0,11.0,-100.00,NNW,343,12.0,20.0,15,0.00,,,-99.99,158.000000,,2013-02-16 01:31:00,
2013-02-15 18:41:00,59.0,11.0,-100.00,NNW,343,12.0,20.0,15,0.00,,,-99.99,158.000000,,2013-02-16 01:41:00,
2013-02-15 18:51:00,59.0,11.0,-100.00,NNW,343,12.0,20.0,15,0.00,,,-99.99,158.000000,,2013-02-16 01:51:00,
2013-02-15 19:21:00,57.0,7.0,-100.00,North,351,10.0,21.0,13,0.00,,,0.00,7.000000,,2013-02-16 02:21:00,
2013-02-15 20:21:00,57.0,7.0,-100.00,North,356,8.0,20.0,13,0.00,,,-99.99,0.000000,,2013-02-16 03:21:00,
2013-02-15 21:11:00,57.0,5.0,-100.00,North,4,8.0,13.0,12,0.00,,,0.00,0.000000,,2013-02-16 04:11:00,
2013-02-15 21:21:00,57.0,5.0,-100.00,North,4,8.0,13.0,12,0.00,,,0.00,0.000000,,2013-02-16 04:21:00,
2013-02-15 22:21:00,58.0,7.0,-100.00,North,359,5.0,13.0,13,0.00,,,0.00,0.000000,,2013-02-16 05:21:00,
2013-02-15 23:11:00,56.0,6.0,-100.00,NNE,13,7.0,13.0,13,0.00,,,0.00,0.000000,,2013-02-16 06:11:00,
2013-02-15 23:21:00,56.0,6.0,-100.00,NNE,13,7.0,13.0,13,0.00,,,0.00,0.000000,,2013-02-16 06:21:00,